Time;durP1;ratioP1;P1;durP2;ratioP2;P2;SDS_P1;SDS_P2;PMS_P1;PMS_P2;Temp;Humidity;BMP_temperature;BMP_pressure;BME280_temperature;BME280_humidity;BME280_pressure;Samples;Min_cycle;Max_cycle;Signal;HPM_P1;HPM_P2
2022/02/22 00:00:46;;;;;;;14.38;7.28;;;;;;;3.89;74.52;100174.75;1744301;81;21335;-73
2022/02/22 00:03:12;;;;;;;13.05;6.50;;;;;;;3.86;74.61;100175.72;1744422;81;20991;-72
2022/02/22 00:05:39;;;;;;;10.43;6.47;;;;;;;3.81;74.71;100165.98;1744351;81;21932;-72
2022/02/22 00:08:08;;;;;;;10.38;5.83;;;;;;;3.78;74.78;100163.95;1744469;81;20928;-73
2022/02/22 00:10:35;;;;;;;10.58;6.62;;;;;;;3.74;74.93;100158.06;1744436;81;20928;-73
2022/02/22 00:13:03;;;;;;;10.40;5.72;;;;;;;3.72;75.13;100162.46;1744377;81;20940;-72
2022/02/22 00:15:29;;;;;;;9.18;5.87;;;;;;;3.70;75.28;100154.73;1744448;82;21410;-74
2022/02/22 00:17:56;;;;;;;8.98;5.97;;;;;;;3.70;75.35;100162.97;1744305;80;21506;-73
2022/02/22 00:20:23;;;;;;;15.35;10.35;;;;;;;3.70;75.42;100152.14;1709649;81;20988;-73
2022/02/22 00:22:50;;;;;;;11.75;7.47;;;;;;;3.71;75.48;100152.98;1744413;82;20937;-75
2022/02/22 00:25:16;;;;;;;7.92;6.20;;;;;;;3.71;75.50;100147.36;1744384;81;20929;-71
2022/02/22 00:27:43;;;;;;;10.68;6.75;;;;;;;3.73;75.60;100145.56;1744517;80;21406;-71
2022/02/22 00:30:11;;;;;;;12.58;6.55;;;;;;;3.72;75.55;100152.09;1744393;82;21122;-72
2022/02/22 00:32:41;;;;;;;9.63;6.35;;;;;;;3.72;75.56;100154.23;1744467;81;20932;-71
2022/02/22 00:35:10;;;;;;;12.05;7.50;;;;;;;3.70;75.51;100149.55;1744451;80;20909;-72
2022/02/22 00:37:38;;;;;;;14.05;7.70;;;;;;;3.66;75.60;100147.97;1744465;81;20874;-74
2022/02/22 00:40:06;;;;;;;12.43;7.12;;;;;;;3.62;75.78;100154.64;1744414;81;20885;-70
2022/02/22 00:42:33;;;;;;;18.77;11.80;;;;;;;3.57;76.00;100146.20;1744622;81;21441;-71
2022/02/22 00:45:01;;;;;;;14.80;8.85;;;;;;;3.53;76.51;100157.13;1744737;81;20956;-71
2022/02/22 00:47:28;;;;;;;16.90;9.60;;;;;;;3.48;76.87;100148.70;1744508;82;20935;-72
2022/02/22 00:49:55;;;;;;;14.15;9.45;;;;;;;3.44;77.22;100151.84;1744549;81;20949;-71
2022/02/22 00:52:22;;;;;;;16.82;9.35;;;;;;;3.42;77.36;100143.73;1744672;81;21483;-71
2022/02/22 00:54:48;;;;;;;15.05;10.08;;;;;;;3.41;77.58;100150.68;1744742;81;21100;-73
2022/02/22 00:57:15;;;;;;;13.22;9.53;;;;;;;3.39;77.88;100146.00;1744586;81;20885;-73
2022/02/22 00:59:42;;;;;;;15.88;9.73;;;;;;;3.38;78.01;100139.14;1744609;81;20976;-72
2022/02/22 01:02:09;;;;;;;17.52;9.60;;;;;;;3.37;78.17;100128.83;1744554;81;20925;-72
2022/02/22 01:04:36;;;;;;;17.27;8.88;;;;;;;3.34;78.27;100128.50;1744468;81;21375;-72
2022/02/22 01:07:03;;;;;;;16.12;8.68;;;;;;;3.33;78.55;100128.09;1744405;81;21154;-72
2022/02/22 01:09:30;;;;;;;15.93;8.48;;;;;;;3.31;78.82;100122.98;1744765;81;21508;-71
2022/02/22 01:11:57;;;;;;;18.67;10.10;;;;;;;3.27;79.31;100122.70;1744414;81;20920;-72
2022/02/22 01:14:24;;;;;;;16.32;8.38;;;;;;;3.25;79.52;100125.80;1744459;81;20972;-70
2022/02/22 01:16:51;;;;;;;14.35;8.70;;;;;;;3.23;80.24;100130.19;1744518;81;20901;-71
2022/02/22 01:19:17;;;;;;;13.80;8.18;;;;;;;3.20;80.46;100123.84;1744812;81;21110;-71
2022/02/22 01:21:44;;;;;;;15.48;9.28;;;;;;;3.20;80.80;100130.32;1744421;81;21402;-71
2022/02/22 01:24:11;;;;;;;14.35;8.38;;;;;;;3.20;81.11;100132.91;1744838;81;20980;-70
2022/02/22 01:26:37;;;;;;;14.35;8.35;;;;;;;3.21;81.28;100125.52;1744470;81;21382;-71
2022/02/22 01:29:04;;;;;;;16.75;10.00;;;;;;;3.23;81.37;100134.08;1744758;82;20984;-71
2022/02/22 01:31:31;;;;;;;19.23;9.65;;;;;;;3.27;81.50;100140.84;1744318;80;21966;-72
2022/02/22 01:33:58;;;;;;;18.20;7.97;;;;;;;3.31;81.63;100143.72;1744865;81;20929;-72
2022/02/22 01:36:25;;;;;;;14.20;8.95;;;;;;;3.36;81.69;100151.73;1744478;82;20925;-73
2022/02/22 01:38:53;;;;;;;32.73;20.48;;;;;;;3.40;81.76;100154.61;1744716;81;21414;-73
2022/02/22 01:41:21;;;;;;;18.87;11.57;;;;;;;3.46;81.83;100166.89;1744528;82;21517;-73
2022/02/22 01:43:49;;;;;;;13.32;8.73;;;;;;;3.53;81.79;100154.54;1744489;82;21358;-72
2022/02/22 01:46:15;;;;;;;16.77;8.70;;;;;;;3.59;81.73;100149.59;1744381;81;20913;-72
2022/02/22 01:48:42;;;;;;;12.80;8.95;;;;;;;3.64;81.72;100154.12;1744684;80;20944;-72
2022/02/22 01:51:09;;;;;;;14.87;8.78;;;;;;;3.66;81.76;100149.27;1744646;81;20881;-73
2022/02/22 01:53:36;;;;;;;16.97;9.40;;;;;;;3.67;81.91;100145.80;1744600;81;20924;-71
2022/02/22 01:56:04;;;;;;;14.25;7.60;;;;;;;3.67;81.98;100133.28;1754518;81;22013;-71
2022/02/22 01:58:31;;;;;;;19.15;8.73;;;;;;;3.67;82.18;100122.91;1757780;81;20999;-72
2022/02/22 02:01:05;;;;;;;15.77;8.63;;;;;;;3.66;82.33;100116.86;1758488;81;21441;-73
2022/02/22 02:03:33;;;;;;;21.05;10.40;;;;;;;3.67;82.46;100108.66;1757828;81;21860;-72
2022/02/22 02:05:59;;;;;;;15.00;8.63;;;;;;;3.69;82.65;100105.52;1758089;81;20833;-71
2022/02/22 02:08:27;;;;;;;18.20;9.33;;;;;;;3.67;82.74;100109.49;1757881;81;21624;-73
2022/02/22 02:10:55;;;;;;;14.85;8.45;;;;;;;3.68;82.81;100115.05;1758104;81;21418;-73
2022/02/22 02:13:22;;;;;;;14.63;8.18;;;;;;;3.70;82.81;100116.30;1757700;80;20944;-74
2022/02/22 02:15:50;;;;;;;21.10;10.45;;;;;;;3.70;82.80;100111.95;1757866;81;20904;-71
2022/02/22 02:18:17;;;;;;;13.95;8.85;;;;;;;3.70;82.86;100117.14;1757901;80;20908;-73
2022/02/22 02:20:44;;;;;;;13.08;7.92;;;;;;;3.72;82.96;100127.45;1758258;81;21770;-72
2022/02/22 02:23:11;;;;;;;12.65;8.48;;;;;;;3.71;83.00;100121.44;1757792;81;20873;-71
2022/02/22 02:25:38;;;;;;;14.85;8.13;;;;;;;3.72;82.94;100133.48;1757734;81;20892;-72
2022/02/22 02:28:06;;;;;;;14.25;8.33;;;;;;;3.74;82.98;100130.84;1757878;81;20885;-72
2022/02/22 02:30:33;;;;;;;13.80;8.63;;;;;;;3.77;82.99;100144.12;1757919;81;20936;-72
2022/02/22 02:33:00;;;;;;;15.10;7.70;;;;;;;3.78;82.89;100143.20;1757856;81;21510;-72
2022/02/22 02:35:27;;;;;;;14.25;8.83;;;;;;;3.77;82.74;100133.75;1757938;81;20904;-72
2022/02/22 02:37:54;;;;;;;16.93;10.30;;;;;;;3.77;82.71;100131.16;1757589;80;20928;-71
2022/02/22 02:40:20;;;;;;;15.20;9.08;;;;;;;3.78;82.69;100126.35;1758007;81;21023;-72
2022/02/22 02:42:47;;;;;;;16.05;8.80;;;;;;;3.78;82.63;100123.76;1757776;81;20987;-72
2022/02/22 02:45:14;;;;;;;18.90;9.78;;;;;;;3.76;82.58;100116.49;1758270;80;21110;-71
2022/02/22 02:47:40;;;;;;;15.80;8.70;;;;;;;3.75;82.59;100113.06;1757644;81;21552;-73
2022/02/22 02:50:08;;;;;;;15.60;8.50;;;;;;;3.72;82.63;100107.55;1757882;81;21018;-73
2022/02/22 02:52:35;;;;;;;19.70;10.70;;;;;;;3.71;82.66;100108.47;1757920;80;21463;-71
2022/02/22 02:55:04;;;;;;;15.00;8.85;;;;;;;3.69;82.63;100107.69;1757583;80;20912;-73
2022/02/22 02:57:32;;;;;;;15.53;9.80;;;;;;;3.67;82.68;100101.71;1757654;81;21956;-72
2022/02/22 02:59:59;;;;;;;16.15;9.10;;;;;;;3.66;82.76;100114.27;1757724;81;20979;-71
2022/02/22 03:02:26;;;;;;;16.90;8.85;;;;;;;3.65;82.78;100111.30;1757740;81;21405;-71
2022/02/22 03:04:58;;;;;;;22.95;13.03;;;;;;;3.65;82.88;100124.72;1757770;81;21011;-74
2022/02/22 03:07:22;;;;;;;24.20;12.28;;;;;;;3.63;82.87;100120.05;1757402;81;20975;-72
2022/02/22 03:09:49;;;;;;;16.07;10.28;;;;;;;3.62;82.92;100106.67;1757670;80;21069;-73
2022/02/22 03:12:15;;;;;;;19.02;10.88;;;;;;;3.62;83.07;100104.92;1757649;80;20975;-72
2022/02/22 03:14:42;;;;;;;20.20;10.98;;;;;;;3.61;83.06;100107.59;1757753;80;20992;-73
2022/02/22 03:17:09;;;;;;;17.75;10.35;;;;;;;3.58;83.20;100109.86;1757774;81;21370;-73
2022/02/22 03:19:36;;;;;;;22.95;11.40;;;;;;;3.56;83.25;100106.91;1757778;80;20948;-72
2022/02/22 03:22:03;;;;;;;20.35;10.30;;;;;;;3.52;83.23;100105.74;1757697;81;21163;-72
2022/02/22 03:24:30;;;;;;;14.87;10.25;;;;;;;3.51;83.31;100109.68;1757593;80;20923;-72
2022/02/22 03:26:56;;;;;;;19.82;11.78;;;;;;;3.49;83.37;100105.88;1758073;81;20908;-72
2022/02/22 03:29:23;;;;;;;19.12;11.10;;;;;;;3.46;83.56;100102.09;1757724;81;21474;-73
2022/02/22 03:31:50;;;;;;;17.32;12.40;;;;;;;3.48;83.65;100117.13;1758029;81;21014;-73
2022/02/22 03:34:17;;;;;;;18.50;10.23;;;;;;;3.47;83.71;100123.23;1757722;81;21526;-72
2022/02/22 03:36:44;;;;;;;16.37;10.20;;;;;;;3.47;83.69;100121.10;1758084;81;21417;-72
2022/02/22 03:39:11;;;;;;;18.25;10.32;;;;;;;3.46;83.66;100120.69;1757590;81;20979;-74
2022/02/22 03:41:38;;;;;;;20.85;11.12;;;;;;;3.44;83.57;100122.50;1758050;81;20912;-74
2022/02/22 03:44:05;;;;;;;18.30;11.28;;;;;;;3.41;83.42;100115.69;1757741;80;20880;-72
2022/02/22 03:46:32;;;;;;;21.87;11.20;;;;;;;3.43;83.30;100120.82;1757975;81;21093;-73
2022/02/22 03:48:58;;;;;;;23.40;11.03;;;;;;;3.40;83.11;100112.72;1757597;81;20916;-74
2022/02/22 03:51:25;;;;;;;18.37;10.65;;;;;;;3.41;82.97;100120.88;1757767;80;20893;-72
2022/02/22 03:53:51;;;;;;;18.82;10.63;;;;;;;3.40;82.91;100114.02;1757967;80;20881;-72
2022/02/22 03:56:18;;;;;;;27.10;11.83;;;;;;;3.41;82.88;100120.03;1750121;81;20862;-73
2022/02/22 03:58:45;;;;;;;21.82;11.30;;;;;;;3.38;82.79;100105.88;1744653;81;21121;-72
2022/02/22 04:01:12;;;;;;;26.33;12.88;;;;;;;3.39;82.73;100111.02;1744605;81;20984;-73
2022/02/22 04:03:39;;;;;;;20.45;11.15;;;;;;;3.40;82.68;100110.55;1744474;81;20904;-72
2022/02/22 04:06:06;;;;;;;16.27;9.68;;;;;;;3.40;82.63;100115.31;1744305;81;20905;-72
2022/02/22 04:08:33;;;;;;;15.50;9.90;;;;;;;3.42;82.58;100112.64;1744470;81;20921;-72
2022/02/22 04:10:59;;;;;;;18.85;10.15;;;;;;;3.43;82.54;100115.18;1744740;81;21096;-72
2022/02/22 04:13:26;;;;;;;23.32;11.12;;;;;;;3.46;82.42;100116.34;1744413;80;20890;-73
2022/02/22 04:15:53;;;;;;;18.48;10.13;;;;;;;3.48;82.33;100113.70;1744459;81;21457;-72
2022/02/22 04:18:20;;;;;;;21.52;11.38;;;;;;;3.50;82.17;100115.78;1745032;81;20873;-73
2022/02/22 04:20:47;;;;;;;26.35;12.35;;;;;;;3.50;82.01;100114.49;1744622;82;20920;-72
2022/02/22 04:23:14;;;;;;;22.15;11.50;;;;;;;3.51;81.95;100117.45;1744857;81;21696;-72
2022/02/22 04:25:41;;;;;;;18.45;10.50;;;;;;;3.51;81.80;100113.57;1744529;81;20964;-71
2022/02/22 04:28:08;;;;;;;19.87;10.60;;;;;;;3.52;81.76;100120.00;1744603;81;20921;-72
2022/02/22 04:30:34;;;;;;;15.45;10.40;;;;;;;3.56;81.68;100113.39;1744718;81;20901;-71
2022/02/22 04:33:01;;;;;;;15.05;10.60;;;;;;;3.58;81.60;100117.64;1744785;82;21027;-71
2022/02/22 04:35:28;;;;;;;22.22;11.08;;;;;;;3.63;81.57;100127.83;1744473;81;22027;-72
2022/02/22 04:37:55;;;;;;;15.98;9.48;;;;;;;3.66;81.48;100131.58;1744665;81;20965;-73
2022/02/22 04:40:22;;;;;;;17.35;11.08;;;;;;;3.68;81.46;100122.83;1744834;82;21441;-72
2022/02/22 04:42:49;;;;;;;18.73;11.12;;;;;;;3.72;81.44;100128.75;1744534;81;20976;-73
2022/02/22 04:45:16;;;;;;;15.25;12.15;;;;;;;3.76;81.35;100139.41;1745025;82;20916;-72
2022/02/22 04:47:45;;;;;;;17.05;10.82;;;;;;;3.80;81.30;100132.33;1744781;81;20960;-72
2022/02/22 04:50:11;;;;;;;17.27;11.45;;;;;;;3.83;81.10;100132.22;1744634;81;20917;-72
2022/02/22 04:52:38;;;;;;;22.27;12.28;;;;;;;3.83;80.95;100131.77;1744486;81;20849;-72
2022/02/22 04:55:06;;;;;;;19.25;12.20;;;;;;;3.82;80.95;100131.35;1744807;81;20948;-72
2022/02/22 04:57:36;;;;;;;20.88;12.03;;;;;;;3.84;81.03;100128.70;1744654;81;20889;-72
2022/02/22 05:00:06;;;;;;;18.95;11.60;;;;;;;3.84;81.12;100125.66;1744727;81;21094;-71
2022/02/22 05:02:34;;;;;;;22.10;12.95;;;;;;;3.86;81.21;100138.11;1744517;81;21450;-73
2022/02/22 05:05:01;;;;;;;22.17;13.50;;;;;;;3.90;81.28;100142.27;1744735;81;20933;-72
2022/02/22 05:07:28;;;;;;;20.20;13.60;;;;;;;3.95;81.29;100152.00;1744538;81;20952;-72
2022/02/22 05:09:55;;;;;;;22.85;14.47;;;;;;;4.01;81.26;100150.93;1744782;81;21379;-73
2022/02/22 05:12:23;;;;;;;21.48;12.98;;;;;;;4.08;81.28;100158.01;1744527;81;20917;-72
2022/02/22 05:14:50;;;;;;;19.65;12.40;;;;;;;4.16;81.21;100167.63;1744472;81;20967;-72
2022/02/22 05:17:17;;;;;;;21.85;13.32;;;;;;;4.24;81.14;100166.01;1744418;81;21431;-74
2022/02/22 05:19:44;;;;;;;21.35;13.72;;;;;;;4.32;81.00;100159.59;1744610;81;20972;-72
2022/02/22 05:22:11;;;;;;;21.05;12.47;;;;;;;4.41;80.81;100162.72;1744885;81;21035;-72
2022/02/22 05:24:37;;;;;;;17.42;12.58;;;;;;;4.46;80.53;100166.80;1744873;82;21766;-74
2022/02/22 05:27:06;;;;;;;25.48;14.03;;;;;;;4.51;80.36;100170.06;1744511;81;20968;-73
2022/02/22 05:29:33;;;;;;;27.65;14.45;;;;;;;4.54;80.09;100168.63;1744576;82;20932;-73
2022/02/22 05:32:00;;;;;;;23.67;13.55;;;;;;;4.60;79.98;100166.67;1744383;81;20968;-72
2022/02/22 05:34:30;;;;;;;21.30;14.90;;;;;;;4.61;79.81;100170.51;1744701;81;21451;-73
2022/02/22 05:36:59;;;;;;;23.73;14.03;;;;;;;4.61;79.58;100164.48;1744467;81;21547;-71
2022/02/22 05:39:25;;;;;;;25.65;14.15;;;;;;;4.60;79.74;100164.91;1744826;81;20960;-71
2022/02/22 05:41:52;;;;;;;31.73;15.70;;;;;;;4.63;79.70;100168.69;1744407;81;20968;-74
2022/02/22 05:44:18;;;;;;;28.85;16.82;;;;;;;4.64;79.72;100167.77;1744774;82;21402;-73
2022/02/22 05:46:46;;;;;;;27.52;13.60;;;;;;;4.65;79.70;100166.88;1744423;81;20976;-73
2022/02/22 05:49:13;;;;;;;23.10;14.15;;;;;;;4.70;79.63;100162.78;1744446;81;21129;-73
2022/02/22 05:51:39;;;;;;;29.67;15.30;;;;;;;4.70;79.53;100157.59;1744432;81;20897;-72
2022/02/22 05:54:06;;;;;;;31.10;16.50;;;;;;;4.72;79.55;100164.86;1744323;81;20838;-71
2022/02/22 05:56:34;;;;;;;25.45;16.35;;;;;;;4.71;79.41;100153.63;1749802;80;20979;-70
2022/02/22 05:59:03;;;;;;;29.60;17.17;;;;;;;4.71;79.23;100156.23;1757814;81;21580;-70
2022/02/22 06:01:31;;;;;;;24.70;17.10;;;;;;;4.67;79.19;100153.80;1757950;81;21546;-71
2022/02/22 06:03:58;;;;;;;38.28;18.12;;;;;;;4.60;79.32;100158.42;1757833;81;20924;-71
2022/02/22 06:06:25;;;;;;;29.10;16.95;;;;;;;4.59;79.54;100162.40;1758003;80;21349;-72
2022/02/22 06:08:52;;;;;;;24.12;13.80;;;;;;;4.67;79.73;100151.20;1757529;81;20944;-73
2022/02/22 06:11:18;;;;;;;19.23;13.32;;;;;;;4.83;79.49;100153.55;1758188;81;20881;-72
2022/02/22 06:13:46;;;;;;;20.70;12.75;;;;;;;5.01;78.95;100153.19;1757785;80;21981;-73
2022/02/22 06:16:13;;;;;;;17.50;12.65;;;;;;;5.25;78.42;100150.41;1757860;81;20963;-71
2022/02/22 06:18:41;;;;;;;18.87;12.37;;;;;;;5.56;77.91;100155.04;1757847;81;20951;-72
2022/02/22 06:21:09;;;;;;;16.93;11.65;;;;;;;6.00;76.99;100158.16;1758131;81;20940;-73
2022/02/22 06:23:37;;;;;;;13.38;9.95;;;;;;;6.53;75.73;100159.47;1757705;81;20927;-71
2022/02/22 06:26:04;;;;;;;17.25;11.08;;;;;;;6.93;72.81;100157.41;1757670;80;21549;-73
2022/02/22 06:28:32;;;;;;;16.07;11.57;;;;;;;7.20;71.44;100160.32;1757867;80;20872;-72
2022/02/22 06:30:59;;;;;;;13.10;10.68;;;;;;;7.51;69.80;100161.28;1758174;81;20861;-71
2022/02/22 06:33:26;;;;;;;21.82;13.32;;;;;;;7.81;68.83;100153.53;1757796;80;20908;-71
2022/02/22 06:35:53;;;;;;;16.15;10.85;;;;;;;8.14;67.01;100156.00;1757867;81;20975;-71
2022/02/22 06:38:20;;;;;;;13.40;10.63;;;;;;;8.51;66.26;100159.11;1757758;81;22149;-72
2022/02/22 06:40:47;;;;;;;23.65;13.25;;;;;;;8.90;64.64;100163.73;1757670;81;20912;-71
2022/02/22 06:43:14;;;;;;;17.40;12.60;;;;;;;9.23;63.32;100170.95;1757836;81;20988;-72
2022/02/22 06:45:40;;;;;;;16.37;10.95;;;;;;;9.32;61.87;100166.45;1757899;80;20892;-72
2022/02/22 06:48:08;;;;;;;16.82;10.90;;;;;;;9.04;61.53;100168.12;1757921;81;20873;-71
2022/02/22 06:50:37;;;;;;;14.43;9.70;;;;;;;8.68;61.69;100177.72;1758122;81;21134;-71
2022/02/22 06:53:04;;;;;;;14.98;9.00;;;;;;;8.32;62.23;100177.61;1757771;81;21086;-72
2022/02/22 06:55:31;;;;;;;16.70;10.32;;;;;;;7.96;63.04;100174.00;1757754;81;20951;-73
2022/02/22 06:58:06;;;;;;;14.80;10.78;;;;;;;7.68;63.88;100169.86;1757748;81;20912;-72
2022/02/22 07:00:40;;;;;;;14.90;10.65;;;;;;;7.43;64.62;100163.84;1758021;81;20924;-72
2022/02/22 07:03:07;;;;;;;13.57;10.13;;;;;;;7.29;65.35;100154.61;1758464;81;21771;-72
2022/02/22 07:05:34;;;;;;;10.98;9.75;;;;;;;7.16;65.52;100158.80;1757717;81;20936;-71
2022/02/22 07:08:01;;;;;;;10.05;8.80;;;;;;;6.97;66.11;100154.56;1757941;81;21552;-72
2022/02/22 07:10:29;;;;;;;13.80;9.48;;;;;;;6.91;66.58;100160.56;1757771;80;20901;-72
2022/02/22 07:12:56;;;;;;;13.38;9.05;;;;;;;6.76;66.98;100160.45;1757799;81;20884;-73
2022/02/22 07:15:23;;;;;;;17.52;11.28;;;;;;;6.62;67.36;100167.64;1757721;81;21129;-72
2022/02/22 07:17:55;;;;;;;17.32;10.58;;;;;;;6.46;68.03;100171.95;1757858;80;20886;-71
2022/02/22 07:20:24;;;;;;;14.43;10.32;;;;;;;6.36;68.54;100163.77;1757927;80;20951;-71
2022/02/22 07:22:52;;;;;;;12.23;9.95;;;;;;;6.32;69.03;100158.33;1758009;81;21010;-71
2022/02/22 07:25:20;;;;;;;11.28;9.13;;;;;;;6.39;69.34;100166.67;1757811;80;20861;-72
2022/02/22 07:27:47;;;;;;;11.63;8.73;;;;;;;6.53;69.53;100165.97;1758106;81;20970;-72
2022/02/22 07:30:16;;;;;;;13.10;8.60;;;;;;;6.69;69.23;100177.76;1757681;81;20896;-72
2022/02/22 07:32:43;;;;;;;13.93;8.88;;;;;;;6.78;69.13;100184.66;1758013;80;20940;-71
2022/02/22 07:35:11;;;;;;;10.88;8.60;;;;;;;6.85;69.08;100180.81;1757958;81;21370;-71
2022/02/22 07:37:40;;;;;;;9.08;7.83;;;;;;;6.99;69.05;100181.86;1757911;81;20892;-72
2022/02/22 07:40:09;;;;;;;13.62;9.30;;;;;;;7.09;68.73;100176.53;1757324;80;21755;-73
2022/02/22 07:42:37;;;;;;;12.05;9.68;;;;;;;7.17;68.57;100176.98;1758040;81;20896;-73
2022/02/22 07:45:05;;;;;;;12.65;9.40;;;;;;;7.20;68.42;100174.66;1757810;81;20987;-74
2022/02/22 07:47:32;;;;;;;12.68;10.53;;;;;;;7.20;68.49;100164.23;1757967;81;21066;-72
2022/02/22 07:49:59;;;;;;;12.28;9.30;;;;;;;7.22;68.73;100168.44;1757849;80;20924;-81
2022/02/22 07:52:27;;;;;;;10.82;8.58;;;;;;;7.30;68.85;100164.60;1758030;80;21105;-83
2022/02/22 07:54:56;;;;;;;10.72;8.00;;;;;;;7.41;68.96;100165.70;1757840;81;20964;-80
2022/02/22 07:57:22;;;;;;;13.88;8.43;;;;;;;7.59;68.75;100166.45;1753739;80;21567;-81
2022/02/22 07:59:50;;;;;;;10.80;8.30;;;;;;;7.72;68.32;100164.02;1749961;81;20924;-81
2022/02/22 08:02:17;;;;;;;9.03;7.80;;;;;;;7.86;68.03;100159.33;1749785;80;20904;-80
2022/02/22 08:04:44;;;;;;;11.85;8.18;;;;;;;7.96;67.65;100157.89;1749920;81;21133;-81
2022/02/22 08:07:10;;;;;;;11.63;8.35;;;;;;;8.07;67.54;100155.95;1749661;80;20973;-81
2022/02/22 08:11:20;;;;;;;14.45;9.25;;;;;;;8.33;67.15;100144.48;1798526;79;22610;-80
2022/02/22 08:13:49;;;;;;;16.32;10.65;;;;;;;8.35;66.85;100142.63;1758217;81;20896;-81
2022/02/22 08:16:16;;;;;;;14.43;9.35;;;;;;;8.36;66.73;100141.23;1758470;81;21488;-81
2022/02/22 08:18:43;;;;;;;12.47;9.08;;;;;;;8.43;66.74;100140.45;1758094;80;20942;-77
2022/02/22 08:21:10;;;;;;;12.28;8.33;;;;;;;8.55;66.27;100124.50;1758506;81;20848;-79
2022/02/22 08:23:37;;;;;;;11.10;8.08;;;;;;;8.74;65.80;100125.53;1758308;80;20928;-79
2022/02/22 08:26:06;;;;;;;14.43;9.68;;;;;;;8.85;65.47;100123.13;1758678;80;21462;-78
2022/02/22 08:28:33;;;;;;;12.50;7.67;;;;;;;8.96;65.10;100128.55;1757984;80;21146;-76
2022/02/22 08:31:00;;;;;;;12.13;8.25;;;;;;;9.01;64.98;100135.63;1758420;80;20880;-78
2022/02/22 08:33:28;;;;;;;13.28;8.70;;;;;;;8.96;64.76;100127.68;1758391;81;20935;-77
2022/02/22 08:35:54;;;;;;;18.15;9.83;;;;;;;8.81;65.04;100130.31;1758472;81;21425;-77
2022/02/22 08:38:21;;;;;;;22.27;10.30;;;;;;;8.78;65.55;100132.25;1758435;81;21035;-78
2022/02/22 08:40:49;;;;;;;13.20;9.48;;;;;;;8.72;65.56;100125.64;1758510;81;21104;-79
2022/02/22 08:43:18;;;;;;;8.70;7.58;;;;;;;8.67;65.88;100120.69;1758181;81;20845;-81
2022/02/22 08:45:45;;;;;;;9.50;6.97;;;;;;;8.65;66.01;100119.11;1758586;81;20928;-78
2022/02/22 08:48:13;;;;;;;9.93;7.90;;;;;;;8.61;66.35;100118.44;1758165;81;20971;-79
2022/02/22 08:50:40;;;;;;;15.32;9.38;;;;;;;8.66;66.52;100108.53;1758370;81;21347;-82
2022/02/22 08:53:08;;;;;;;11.03;7.80;;;;;;;8.74;66.56;100108.09;1758249;80;21116;-76
2022/02/22 08:55:35;;;;;;;9.93;8.30;;;;;;;8.84;66.29;100115.73;1758189;81;20994;-81
2022/02/22 08:58:02;;;;;;;12.37;8.25;;;;;;;9.18;66.08;100105.83;1758239;81;21003;-80
2022/02/22 09:00:31;;;;;;;11.00;7.53;;;;;;;9.70;65.25;100109.05;1758421;81;20885;-80
2022/02/22 09:02:58;;;;;;;8.95;7.53;;;;;;;10.33;63.52;100118.02;1758138;81;20972;-80
2022/02/22 09:05:25;;;;;;;12.98;7.92;;;;;;;10.88;61.51;100110.80;1758470;80;21134;-82
2022/02/22 09:07:52;;;;;;;10.82;6.62;;;;;;;11.30;59.76;100113.98;1758157;80;21011;-79
2022/02/22 09:10:20;;;;;;;11.57;6.45;;;;;;;11.66;58.82;100114.08;1751742;81;20885;-81
2022/02/22 09:12:47;;;;;;;8.58;6.58;;;;;;;12.04;57.21;100115.23;1745866;82;20944;-79
2022/02/22 09:15:16;;;;;;;10.58;7.80;;;;;;;12.31;56.13;100113.63;1745379;82;20889;-79
2022/02/22 09:17:43;;;;;;;9.15;7.03;;;;;;;12.57;55.48;100109.52;1745176;81;21130;-71
2022/02/22 09:20:12;;;;;;;7.83;7.00;;;;;;;12.71;55.12;100096.12;1745340;81;20924;-77
2022/02/22 09:22:39;;;;;;;10.13;7.53;;;;;;;12.95;54.60;100105.71;1744653;80;21303;-76
2022/02/22 09:25:10;;;;;;;10.05;6.53;;;;;;;13.11;54.22;100106.66;1744636;82;20932;-77
2022/02/22 09:27:41;;;;;;;6.58;5.78;;;;;;;13.28;53.75;100106.19;1744595;82;20845;-80
2022/02/22 09:30:13;;;;;;;8.38;6.08;;;;;;;13.44;52.83;100109.27;1744719;80;21158;-78
2022/02/22 09:32:42;;;;;;;7.50;6.03;;;;;;;13.65;52.46;100104.53;1744531;80;21359;-80
2022/02/22 09:35:09;;;;;;;10.32;5.78;;;;;;;13.89;51.86;100112.24;1744693;82;21347;-79
2022/02/22 09:37:36;;;;;;;8.10;6.10;;;;;;;14.06;51.29;100095.88;1744438;81;20936;-79
2022/02/22 09:40:03;;;;;;;8.90;5.92;;;;;;;14.22;50.79;100098.06;1744948;82;20967;-78
2022/02/22 09:42:31;;;;;;;10.08;6.50;;;;;;;14.30;50.65;100090.84;1744523;82;21156;-79
2022/02/22 09:44:58;;;;;;;10.75;8.70;;;;;;;14.44;50.35;100076.48;1687574;84;20895;-78
2022/02/22 09:47:24;;;;;;;11.15;7.90;;;;;;;14.61;50.44;100085.15;1708789;84;20964;-79
2022/02/22 09:49:51;;;;;;;7.67;6.20;;;;;;;14.82;50.06;100086.91;1709065;82;20940;-79
2022/02/22 09:52:18;;;;;;;9.58;5.87;;;;;;;15.05;49.63;100086.22;1708848;84;20959;-80
2022/02/22 09:54:45;;;;;;;8.58;6.60;;;;;;;15.29;49.07;100086.70;1708864;84;21220;-80
2022/02/22 09:57:12;;;;;;;9.35;6.62;;;;;;;15.49;48.23;100092.86;1708574;83;21533;-76
2022/02/22 09:59:39;;;;;;;6.08;4.80;;;;;;;15.63;47.02;100094.29;1708841;84;20979;-78
2022/02/22 10:02:06;;;;;;;10.00;6.67;;;;;;;15.50;46.96;100089.75;1709042;82;20947;-76
2022/02/22 10:04:42;;;;;;;7.00;5.92;;;;;;;15.25;47.68;100092.39;1708751;84;20951;-77
2022/02/22 10:07:09;;;;;;;10.43;6.28;;;;;;;15.25;47.68;100092.39;1709012;84;21140;-73
2022/02/22 10:09:59;;;;;;;7.08;6.00;;;;;;;15.27;47.70;100083.84;1708519;83;20952;-75
2022/02/22 10:12:29;;;;;;;10.70;6.92;;;;;;;15.46;48.02;100080.42;1708606;82;20976;-70
2022/02/22 10:14:57;;;;;;;6.95;5.47;;;;;;;15.93;46.72;100089.87;1708679;84;20900;-69
2022/02/22 10:17:25;;;;;;;6.67;5.35;;;;;;;16.15;45.42;100091.39;1708395;84;20899;-73
2022/02/22 10:20:04;;;;;;;7.12;5.78;;;;;;;16.18;45.42;100088.45;1708368;82;21534;-72
2022/02/22 10:22:32;;;;;;;9.38;6.37;;;;;;;16.14;45.30;100078.66;1708597;84;20927;-72
2022/02/22 10:25:09;;;;;;;6.80;5.87;;;;;;;15.95;45.58;100082.63;1708398;84;20927;-73
2022/02/22 10:27:49;;;;;;;9.20;7.20;;;;;;;15.78;46.02;100083.33;1708630;83;20979;-72
2022/02/22 10:30:39;;;;;;;6.95;6.28;;;;;;;15.54;46.42;100089.34;1708726;84;21092;-73
2022/02/22 10:33:16;;;;;;;7.95;5.45;;;;;;;15.29;47.00;100081.91;1708663;82;21147;-72
2022/02/22 10:35:51;;;;;;;13.48;10.20;;;;;;;15.23;47.20;100089.05;1708092;84;21410;-72
2022/02/22 10:38:25;;;;;;;11.68;9.20;;;;;;;15.04;47.41;100088.52;1744281;81;21420;-71
2022/02/22 10:41:19;;;;;;;12.25;6.65;;;;;;;14.80;47.99;100092.80;1744865;81;21350;-71
2022/02/22 10:43:38;;;;;;;8.58;6.55;;;;;;;13.96;49.87;100085.75;1738707;80;20881;-74
2022/02/22 10:46:09;;;;;;;11.22;7.08;;;;;;;13.96;49.87;100085.75;1744438;81;20901;-72
2022/02/22 10:48:42;;;;;;;10.43;7.25;;;;;;;13.72;50.58;100095.65;1744600;82;21011;-72
2022/02/22 10:51:14;;;;;;;9.28;7.20;;;;;;;13.58;51.23;100096.29;1744183;81;21404;-70
2022/02/22 10:53:44;;;;;;;11.18;7.45;;;;;;;13.34;51.61;100097.81;1744369;81;20944;-71
2022/02/22 10:56:14;;;;;;;8.20;6.28;;;;;;;13.12;52.32;100097.81;1743968;81;20945;-71
2022/02/22 10:58:43;;;;;;;10.48;7.42;;;;;;;12.93;52.94;100095.30;1744211;82;21137;-70
2022/02/22 11:01:13;;;;;;;9.38;7.17;;;;;;;12.76;53.13;100095.77;1744242;81;21195;-72
2022/02/22 11:03:41;;;;;;;9.45;6.72;;;;;;;12.54;53.58;100094.81;1744520;80;20881;-71
2022/02/22 11:06:09;;;;;;;7.67;6.87;;;;;;;12.34;53.83;100084.50;1744101;82;20926;-73
2022/02/22 11:08:40;;;;;;;10.63;7.87;;;;;;;12.18;54.42;100099.28;1744902;81;20845;-74
2022/02/22 11:11:13;;;;;;;8.48;6.78;;;;;;;12.11;54.70;100103.30;1750357;81;21195;-72
2022/02/22 11:13:40;;;;;;;9.70;7.40;;;;;;;12.01;54.60;100107.10;1757463;81;20872;-72
2022/02/22 11:16:14;;;;;;;9.15;7.40;;;;;;;11.85;54.93;100099.11;1757229;81;20901;-73
2022/02/22 11:18:53;;;;;;;8.08;7.25;;;;;;;11.67;55.47;100097.35;1757824;81;21418;-72
2022/02/22 11:21:23;;;;;;;10.63;8.33;;;;;;;11.53;56.02;100097.88;1757690;80;21326;-72
2022/02/22 11:24:05;;;;;;;13.35;8.63;;;;;;;11.40;56.53;100101.89;1757603;81;22168;-72
2022/02/22 11:26:53;;;;;;;15.08;8.48;;;;;;;11.30;56.84;100095.61;1757950;81;20968;-74